TimeCDT,TemperatureF,Dew PointF,Humidity,Sea Level PressureIn,VisibilityMPH,Wind Direction,Wind SpeedMPH,Gust SpeedMPH,PrecipitationIn,Events,Conditions,WindDirDegrees,DateUTC
12:52 AM,35.1,28.0,76,30.04,-9999.0,Calm,Calm,-,N/A,,Unknown,0,2013-10-28 05:52:00
1:52 AM,36.0,28.9,76,30.05,-9999.0,Calm,Calm,-,N/A,,Unknown,0,2013-10-28 06:52:00
2:52 AM,34.0,28.0,79,30.06,-9999.0,Calm,Calm,-,N/A,,Unknown,0,2013-10-28 07:52:00
3:52 AM,33.1,27.0,78,30.07,-9999.0,Calm,Calm,-,N/A,,Unknown,0,2013-10-28 08:52:00
4:52 AM,33.1,27.0,78,30.09,-9999.0,Calm,Calm,-,N/A,,Unknown,0,2013-10-28 09:52:00
5:52 AM,30.9,27.0,85,30.11,-9999.0,Calm,Calm,-,N/A,,Unknown,0,2013-10-28 10:52:00
6:52 AM,32.0,27.0,82,30.12,-9999.0,Calm,Calm,-,N/A,,Unknown,0,2013-10-28 11:52:00
7:52 AM,32.0,27.0,82,30.16,-9999.0,Calm,Calm,-,N/A,,Unknown,0,2013-10-28 12:52:00
8:52 AM,39.9,32.0,73,30.17,-9999.0,Calm,Calm,-,N/A,,Unknown,0,2013-10-28 13:52:00
9:52 AM,50.0,35.1,57,30.19,-9999.0,SSE,3.5,-,N/A,,Unknown,160,2013-10-28 14:52:00
10:52 AM,57.0,34.0,42,30.19,-9999.0,South,3.5,-,N/A,,Unknown,180,2013-10-28 15:52:00
11:52 AM,63.0,35.1,35,30.19,-9999.0,ESE,4.6,-,N/A,,Unknown,110,2013-10-28 16:52:00
12:52 PM,66.9,32.0,27,30.17,-9999.0,Variable,6.9,-,N/A,,Unknown,0,2013-10-28 17:52:00
1:52 PM,66.9,30.9,26,30.15,-9999.0,SE,8.1,-,N/A,,Unknown,130,2013-10-28 18:52:00
2:52 PM,66.9,30.9,26,30.15,-9999.0,ESE,5.8,-,N/A,,Unknown,120,2013-10-28 19:52:00
3:52 PM,66.9,32.0,27,30.15,-9999.0,SSE,6.9,-,N/A,,Unknown,150,2013-10-28 20:52:00
4:52 PM,66.9,30.9,26,30.15,-9999.0,East,5.8,-,N/A,,Unknown,100,2013-10-28 21:52:00
5:52 PM,64.9,30.0,27,30.16,-9999.0,ENE,3.5,-,N/A,,Unknown,70,2013-10-28 22:52:00
6:52 PM,55.9,32.0,40,30.18,-9999.0,Calm,Calm,-,N/A,,Unknown,0,2013-10-28 23:52:00
7:52 PM,51.1,33.1,50,30.21,-9999.0,Calm,Calm,-,N/A,,Unknown,0,2013-10-29 00:52:00
8:52 PM,57.9,30.9,36,30.19,-9999.0,Calm,Calm,-,N/A,,Unknown,0,2013-10-29 01:52:00
9:52 PM,55.0,30.9,40,30.19,-9999.0,Calm,Calm,-,N/A,,Unknown,0,2013-10-29 02:52:00
10:52 PM,53.1,30.9,43,30.19,-9999.0,Calm,Calm,-,N/A,,Unknown,0,2013-10-29 03:52:00
11:52 PM,51.1,32.0,48,30.19,-9999.0,Calm,Calm,-,N/A,,Unknown,0,2013-10-29 04:52:00